createdAt,value
2022-08-19T00:01:59.067Z,15.03
2022-08-19T00:04:37.679Z,14.80
2022-08-19T00:07:06.801Z,15.03
2022-08-19T00:09:35.457Z,15.93
2022-08-19T00:12:03.706Z,16.30
2022-08-19T00:14:32.520Z,15.50
2022-08-19T00:17:00.938Z,14.40
2022-08-19T00:19:28.111Z,16.73
2022-08-19T00:21:57.931Z,14.67
2022-08-19T00:24:25.605Z,14.80
2022-08-19T00:26:54.240Z,16.00
2022-08-19T00:29:23.060Z,16.03
2022-08-19T00:31:53.947Z,16.07
2022-08-19T00:34:24.729Z,16.13
2022-08-19T00:36:51.981Z,14.20
2022-08-19T00:39:19.686Z,14.97
2022-08-19T00:41:49.771Z,16.87
2022-08-19T00:44:26.734Z,15.70
2022-08-19T00:46:58.437Z,15.60
2022-08-19T00:49:31.172Z,15.53
2022-08-19T00:52:08.052Z,15.00
2022-08-19T00:54:37.549Z,15.80
2022-08-19T00:57:10.618Z,16.90
2022-08-19T00:59:56.312Z,15.90
2022-08-19T01:02:30.277Z,16.23
2022-08-19T01:05:02.937Z,18.00
2022-08-19T01:07:37.510Z,20.57
2022-08-19T01:10:08.838Z,15.80
2022-08-19T01:12:37.397Z,16.30
2022-08-19T01:15:09.566Z,15.77
2022-08-19T01:17:40.116Z,16.13
2022-08-19T01:20:11.337Z,15.03
2022-08-19T01:22:46.650Z,16.47
2022-08-19T01:25:15.296Z,15.13
2022-08-19T01:27:45.601Z,15.00
2022-08-19T01:30:15.273Z,15.57
2022-08-19T01:32:42.939Z,16.83
2022-08-19T01:35:11.763Z,17.20
2022-08-19T01:37:53.845Z,17.80
2022-08-19T01:40:24.518Z,18.07
2022-08-19T01:42:52.287Z,17.80
2022-08-19T01:45:22.776Z,19.73
2022-08-19T01:47:55.542Z,18.80
2022-08-19T01:50:31.565Z,18.17
2022-08-19T01:53:06.191Z,17.30
2022-08-19T01:55:41.327Z,17.37
2022-08-19T01:58:13.838Z,15.13
2022-08-19T02:00:41.539Z,16.30
2022-08-19T02:03:12.377Z,17.30
2022-08-19T02:05:41.223Z,16.40
2022-08-19T02:08:10.885Z,16.40
2022-08-19T02:10:43.447Z,16.20
2022-08-19T02:13:11.905Z,16.80
2022-08-19T02:15:39.127Z,15.00
2022-08-19T02:18:07.191Z,15.70
2022-08-19T02:20:40.049Z,15.53
2022-08-19T02:23:13.766Z,15.70
2022-08-19T02:25:45.252Z,16.60
2022-08-19T02:28:16.629Z,15.57
2022-08-19T02:30:47.987Z,15.80
2022-08-19T02:33:16.231Z,14.87
2022-08-19T02:35:44.218Z,15.10
2022-08-19T02:38:27.936Z,15.17
2022-08-19T02:41:01.434Z,14.70
2022-08-19T02:43:33.672Z,16.27
2022-08-19T02:46:12.970Z,15.83
2022-08-19T02:48:40.550Z,15.43
2022-08-19T02:51:07.619Z,15.20
2022-08-19T02:53:36.105Z,15.70
2022-08-19T02:56:07.392Z,15.20
2022-08-19T02:58:34.625Z,16.17
2022-08-19T03:01:02.198Z,16.07
2022-08-19T03:03:32.822Z,15.13
2022-08-19T03:06:13.664Z,16.07
2022-08-19T03:08:44.699Z,15.00
2022-08-19T03:11:15.952Z,14.90
2022-08-19T03:13:45.978Z,14.47
2022-08-19T03:16:13.756Z,14.67
2022-08-19T03:18:40.794Z,14.93
2022-08-19T03:21:16.129Z,14.07
2022-08-19T03:23:44.949Z,14.30
2022-08-19T03:26:16.552Z,14.80
2022-08-19T03:28:51.751Z,14.20
2022-08-19T03:31:44.225Z,14.03
2022-08-19T03:34:18.623Z,14.20
2022-08-19T03:36:46.984Z,13.60
2022-08-19T03:39:16.471Z,15.80
2022-08-19T03:41:48.338Z,14.20
2022-08-19T03:44:19.225Z,13.57
2022-08-19T03:46:48.509Z,13.90
2022-08-19T03:49:18.252Z,14.33
2022-08-19T03:51:47.332Z,13.17
2022-08-19T03:54:18.972Z,13.00
2022-08-19T03:56:49.413Z,14.80
2022-08-19T03:59:20.930Z,15.03
2022-08-19T04:01:48.053Z,14.63
2022-08-19T04:04:15.147Z,13.00
2022-08-19T04:06:44.109Z,15.27
2022-08-19T04:09:12.793Z,15.33
2022-08-19T04:11:44.960Z,14.40
2022-08-19T04:14:16.318Z,14.27
2022-08-19T04:16:45.428Z,15.17
2022-08-19T04:19:14.428Z,15.87
2022-08-19T04:21:44.010Z,15.17
2022-08-19T04:24:11.812Z,15.47
2022-08-19T04:26:40.410Z,15.60
2022-08-19T04:29:12.774Z,15.50
2022-08-19T04:31:41.943Z,14.80
2022-08-19T04:34:12.228Z,15.60
2022-08-19T04:36:42.600Z,15.10
2022-08-19T04:39:13.087Z,15.20
2022-08-19T04:42:06.273Z,15.70
2022-08-19T04:44:35.230Z,15.73
2022-08-19T04:47:10.887Z,14.00
2022-08-19T04:49:41.403Z,14.10
2022-08-19T04:52:09.328Z,14.80
2022-08-19T04:54:38.022Z,14.63
2022-08-19T04:57:11.427Z,14.57
2022-08-19T04:59:40.145Z,14.23
2022-08-19T05:02:09.786Z,14.60
2022-08-19T05:04:39.907Z,14.00
2022-08-19T05:07:07.679Z,14.90
2022-08-19T05:09:57.094Z,15.23
2022-08-19T05:12:25.849Z,14.43
2022-08-19T05:15:03.195Z,14.03
2022-08-19T05:17:34.895Z,14.43
2022-08-19T05:20:28.966Z,13.60
2022-08-19T05:22:56.331Z,14.00
2022-08-19T05:25:26.196Z,14.00
2022-08-19T05:27:54.656Z,13.77
2022-08-19T05:30:33.439Z,14.20
2022-08-19T05:33:00.860Z,14.00
2022-08-19T05:35:29.097Z,13.60
2022-08-19T05:38:01.986Z,13.93
2022-08-19T05:40:32.151Z,13.83
2022-08-19T05:43:00.600Z,13.43
2022-08-19T05:45:30.622Z,14.47
2022-08-19T05:47:58.203Z,14.73
2022-08-19T05:50:26.758Z,13.97
2022-08-19T05:52:59.754Z,14.53
2022-08-19T05:55:26.698Z,13.13
2022-08-19T05:57:53.699Z,13.67
2022-08-19T06:00:24.716Z,13.13
2022-08-19T06:02:52.474Z,13.00
2022-08-19T06:05:22.838Z,12.57
2022-08-19T06:07:52.797Z,12.40
2022-08-19T06:10:20.149Z,12.47
2022-08-19T06:12:47.171Z,11.97
2022-08-19T06:15:16.055Z,12.87
2022-08-19T06:17:45.476Z,12.43
2022-08-19T06:20:16.184Z,12.23
2022-08-19T06:22:46.954Z,12.20
2022-08-19T06:25:15.782Z,12.40
2022-08-19T06:28:14.782Z,10.77
2022-08-19T06:30:31.093Z,12.03
2022-08-19T06:32:59.492Z,10.90
2022-08-19T06:35:26.638Z,12.23
2022-08-19T06:37:54.487Z,12.00
2022-08-19T06:40:21.995Z,13.40
2022-08-19T06:42:54.224Z,12.17
2022-08-19T06:45:24.802Z,12.10
2022-08-19T06:47:56.700Z,11.60
2022-08-19T06:50:25.742Z,11.33
2022-08-19T06:52:53.274Z,10.10
2022-08-19T06:55:20.721Z,10.83
2022-08-19T06:57:49.292Z,11.60
2022-08-19T07:00:16.945Z,11.30
2022-08-19T07:02:49.795Z,11.80
2022-08-19T07:05:24.298Z,11.53
2022-08-19T07:07:52.153Z,12.50
2022-08-19T07:10:20.321Z,10.90
2022-08-19T07:12:48.553Z,11.47
2022-08-19T07:15:16.951Z,9.90
2022-08-19T07:17:52.519Z,10.97
2022-08-19T07:20:20.245Z,11.80
2022-08-19T07:22:52.276Z,9.03
2022-08-19T07:25:21.863Z,10.00
2022-08-19T07:28:01.469Z,11.20
2022-08-19T07:30:29.116Z,9.50
2022-08-19T07:32:57.157Z,11.50
2022-08-19T07:35:24.484Z,10.73
2022-08-19T07:37:54.067Z,10.20
2022-08-19T07:40:21.871Z,10.63
2022-08-19T07:42:49.218Z,11.23
2022-08-19T07:45:16.989Z,9.70
2022-08-19T07:47:50.159Z,10.80
2022-08-19T07:50:20.993Z,9.97
2022-08-19T07:52:50.364Z,12.60
2022-08-19T07:55:40.415Z,11.30
2022-08-19T07:58:13.414Z,12.00
2022-08-19T08:00:40.917Z,13.40
2022-08-19T08:03:09.456Z,12.20
2022-08-19T08:05:55.175Z,15.40
2022-08-19T08:08:43.935Z,12.63
2022-08-19T08:11:15.722Z,13.27
2022-08-19T08:13:43.149Z,16.17
2022-08-19T08:16:14.113Z,15.33
2022-08-19T08:18:43.210Z,12.97
2022-08-19T08:21:15.346Z,13.10
2022-08-19T08:23:43.766Z,15.53
2022-08-19T08:26:16.634Z,15.43
2022-08-19T08:28:48.057Z,17.47
2022-08-19T08:31:16.768Z,17.13
2022-08-19T08:33:44.222Z,17.07
2022-08-19T08:36:12.743Z,16.03
2022-08-19T08:38:41.904Z,17.97
2022-08-19T08:41:20.943Z,15.37
2022-08-19T08:43:53.948Z,16.37
2022-08-19T08:46:31.024Z,14.50
2022-08-19T08:49:08.284Z,15.53
2022-08-19T08:54:19.332Z,12.90
2022-08-19T08:56:51.531Z,14.80
2022-08-19T08:59:27.905Z,14.63
2022-08-19T09:01:55.132Z,14.33
2022-08-19T09:04:23.486Z,12.63
2022-08-19T09:07:18.465Z,14.57
2022-08-19T09:09:56.088Z,16.17
2022-08-19T09:12:35.285Z,14.60
2022-08-19T09:15:08.440Z,16.13
2022-08-19T09:17:50.168Z,16.10
2022-08-19T09:20:24.273Z,16.80
2022-08-19T09:22:53.706Z,17.57
2022-08-19T09:25:24.611Z,18.13
2022-08-19T09:28:02.637Z,16.77
2022-08-19T09:30:34.281Z,17.23
2022-08-19T09:33:01.983Z,19.13
2022-08-19T09:35:50.140Z,18.70
2022-08-19T09:38:23.663Z,18.60
2022-08-19T09:41:02.498Z,19.57
2022-08-19T09:43:44.481Z,18.60
2022-08-19T09:46:18.024Z,18.40
2022-08-19T09:48:49.463Z,18.60
2022-08-19T09:51:21.474Z,16.50
2022-08-19T09:53:54.661Z,15.93
2022-08-19T09:56:23.243Z,13.33
2022-08-19T09:58:55.928Z,12.17
2022-08-19T10:01:26.169Z,12.97
2022-08-19T10:03:55.955Z,11.77
2022-08-19T10:06:43.271Z,12.40
2022-08-19T10:09:13.338Z,11.77
2022-08-19T10:11:49.860Z,11.10
2022-08-19T10:14:26.474Z,10.73
2022-08-19T10:16:53.653Z,10.60
2022-08-19T10:19:25.514Z,9.13
2022-08-19T10:21:53.681Z,11.27
2022-08-19T10:24:21.585Z,11.47
2022-08-19T10:26:58.796Z,17.53
2022-08-19T10:29:32.748Z,11.10
2022-08-19T10:32:05.481Z,9.87
2022-08-19T10:34:48.155Z,9.97
2022-08-19T10:37:23.959Z,9.60
2022-08-19T10:40:05.278Z,9.67
2022-08-19T10:42:39.451Z,9.27
2022-08-19T10:45:11.109Z,9.10
2022-08-19T10:47:38.837Z,9.40
2022-08-19T10:50:28.844Z,9.13
2022-08-19T10:53:08.158Z,10.80
2022-08-19T10:56:05.088Z,8.10
2022-08-19T10:58:35.139Z,7.67
2022-08-19T11:01:05.443Z,6.07
2022-08-19T11:03:34.139Z,7.43
2022-08-19T11:06:03.439Z,8.70
2022-08-19T11:08:35.508Z,7.60
2022-08-19T11:11:04.477Z,7.77
2022-08-19T11:13:36.312Z,7.13
2022-08-19T11:16:08.611Z,10.00
2022-08-19T11:18:42.335Z,13.87
2022-08-19T11:21:13.477Z,9.03
2022-08-19T11:23:41.821Z,8.23
2022-08-19T11:26:09.547Z,8.90
2022-08-19T11:28:40.289Z,8.67
2022-08-19T11:31:13.310Z,7.30
2022-08-19T11:33:41.315Z,6.33
2022-08-19T11:36:09.126Z,6.70
2022-08-19T11:38:36.637Z,6.50
2022-08-19T11:41:06.767Z,5.60
2022-08-19T11:43:37.325Z,9.50
2022-08-19T11:46:08.039Z,6.50
2022-08-19T11:48:37.054Z,6.30
2022-08-19T11:51:08.131Z,6.00
2022-08-19T11:53:35.631Z,6.40
2022-08-19T11:56:04.692Z,7.83
2022-08-19T11:58:31.919Z,8.40
2022-08-19T12:01:05.619Z,8.60
2022-08-19T12:03:32.794Z,7.07
2022-08-19T12:06:06.009Z,8.20
2022-08-19T12:08:33.347Z,14.47
2022-08-19T12:11:02.293Z,7.77
2022-08-19T12:13:31.306Z,7.43
2022-08-19T12:15:59.377Z,9.07
2022-08-19T12:18:28.521Z,8.97
2022-08-19T12:20:56.579Z,8.00
2022-08-19T12:23:25.068Z,8.00
2022-08-19T12:25:55.594Z,7.13
2022-08-19T12:28:25.112Z,7.50
2022-08-19T12:30:52.561Z,7.40
2022-08-19T12:33:24.552Z,7.27
2022-08-19T12:35:51.980Z,6.47
2022-08-19T12:38:19.638Z,7.20
2022-08-19T12:40:49.338Z,7.20
2022-08-19T12:43:16.906Z,8.33
2022-08-19T12:45:44.542Z,7.00
2022-08-19T12:48:33.615Z,7.90
2022-08-19T12:51:07.568Z,6.20
2022-08-19T12:53:34.812Z,5.07
2022-08-19T12:56:12.350Z,5.10
2022-08-19T12:58:42.590Z,4.53
2022-08-19T13:01:22.633Z,6.70
2022-08-19T13:03:51.135Z,6.90
2022-08-19T13:06:19.555Z,6.30
2022-08-19T13:08:51.378Z,6.40
2022-08-19T13:11:24.232Z,6.80
2022-08-19T13:13:53.271Z,6.67
2022-08-19T13:16:21.270Z,7.50
2022-08-19T13:18:57.141Z,7.57
2022-08-19T13:21:30.993Z,7.80
2022-08-19T13:24:01.323Z,6.40
2022-08-19T13:26:30.176Z,8.80
2022-08-19T13:29:27.175Z,8.40
2022-08-19T13:32:13.175Z,8.40
2022-08-19T13:34:49.412Z,8.60
2022-08-19T13:37:40.062Z,8.13
2022-08-19T13:40:17.821Z,8.60
2022-08-19T13:42:52.748Z,7.97
2022-08-19T13:45:26.097Z,8.33
2022-08-19T13:47:59.191Z,8.53
2022-08-19T13:50:48.996Z,9.20
2022-08-19T13:53:19.353Z,8.23
2022-08-19T13:55:46.833Z,7.20
2022-08-19T13:58:15.623Z,6.90
2022-08-19T14:00:49.393Z,7.90
2022-08-19T14:03:19.460Z,8.20
2022-08-19T14:05:49.430Z,10.43
2022-08-19T14:08:22.513Z,9.87
2022-08-19T14:10:55.814Z,7.90
2022-08-19T14:13:24.952Z,7.87
2022-08-19T14:15:53.193Z,8.10
2022-08-19T14:18:28.694Z,8.50
2022-08-19T14:20:58.040Z,7.27
2022-08-19T14:23:32.669Z,7.00
2022-08-19T14:26:08.469Z,7.60
2022-08-19T14:31:26.786Z,7.30
2022-08-19T14:33:56.161Z,6.90
2022-08-19T14:36:23.389Z,6.87
2022-08-19T14:38:50.483Z,7.83
2022-08-19T14:41:23.995Z,7.40
2022-08-19T14:43:54.295Z,7.03
2022-08-19T14:46:25.795Z,7.10
2022-08-19T14:48:56.643Z,7.20
2022-08-19T14:51:27.344Z,7.33
2022-08-19T14:53:54.963Z,7.50
2022-08-19T14:56:26.293Z,6.40
2022-08-19T14:58:55.211Z,6.50
2022-08-19T15:01:23.871Z,6.60
2022-08-19T15:03:53.892Z,6.70
2022-08-19T15:06:23.207Z,6.20
2022-08-19T15:08:52.586Z,7.00
2022-08-19T15:11:23.570Z,6.40
2022-08-19T15:13:50.984Z,7.20
2022-08-19T15:16:20.285Z,6.97
2022-08-19T15:18:53.678Z,6.80
2022-08-19T15:21:26.698Z,7.23
2022-08-19T15:23:56.356Z,7.07
2022-08-19T15:26:23.589Z,6.83
2022-08-19T15:28:50.582Z,6.13
2022-08-19T15:31:28.342Z,7.00
2022-08-19T15:33:58.103Z,7.30
2022-08-19T15:36:26.586Z,6.87
2022-08-19T15:38:53.799Z,8.93
2022-08-19T15:41:24.120Z,7.60
2022-08-19T15:43:55.583Z,7.40
2022-08-19T15:46:28.343Z,6.57
2022-08-19T15:49:00.087Z,7.07
2022-08-19T15:51:30.422Z,8.23
2022-08-19T15:53:58.496Z,7.90
2022-08-19T15:56:27.536Z,7.50
2022-08-19T15:59:13.759Z,8.00
2022-08-19T16:02:01.013Z,6.93
2022-08-19T16:04:47.345Z,7.47
2022-08-19T16:07:14.504Z,8.37
2022-08-19T16:09:49.605Z,8.20
2022-08-19T16:12:19.755Z,7.30
2022-08-19T16:14:48.607Z,8.33
2022-08-19T16:17:17.066Z,7.70
2022-08-19T16:19:44.126Z,7.40
2022-08-19T16:22:14.564Z,8.73
2022-08-19T16:24:41.644Z,7.27
2022-08-19T16:27:11.625Z,7.80
2022-08-19T16:29:39.269Z,7.70
2022-08-19T16:32:10.644Z,7.63
2022-08-19T16:34:41.315Z,7.50
2022-08-19T16:37:11.579Z,7.40
2022-08-19T16:39:39.247Z,6.93
2022-08-19T16:42:09.187Z,7.20
2022-08-19T16:44:44.909Z,7.00
2022-08-19T16:47:12.667Z,6.60
2022-08-19T16:49:52.965Z,6.93
2022-08-19T16:52:25.155Z,7.73
2022-08-19T16:54:52.676Z,6.00
2022-08-19T16:57:20.146Z,6.33
2022-08-19T16:59:52.216Z,6.37
2022-08-19T17:02:22.425Z,7.27
2022-08-19T17:04:57.145Z,7.60
2022-08-19T17:07:32.153Z,7.20
2022-08-19T17:10:01.995Z,6.83
2022-08-19T17:12:32.508Z,6.40
2022-08-19T17:15:04.976Z,8.00
2022-08-19T17:17:32.464Z,6.90
2022-08-19T17:20:03.283Z,6.70
2022-08-19T17:22:30.339Z,7.67
2022-08-19T17:24:58.332Z,6.33
2022-08-19T17:27:26.825Z,7.57
2022-08-19T17:29:59.902Z,9.10
2022-08-19T17:32:27.327Z,7.83
2022-08-19T17:34:54.477Z,7.37
2022-08-19T17:37:23.182Z,7.90
2022-08-19T17:39:50.987Z,6.50
2022-08-19T17:42:18.346Z,6.80
2022-08-19T17:44:50.815Z,7.33
2022-08-19T17:47:18.758Z,7.67
2022-08-19T17:49:45.889Z,7.00
2022-08-19T17:52:13.039Z,7.73
2022-08-19T17:54:41.571Z,8.13
2022-08-19T17:57:09.631Z,7.00
2022-08-19T17:59:47.473Z,8.03
2022-08-19T18:02:15.831Z,7.97
2022-08-19T18:04:48.877Z,7.50
2022-08-19T18:07:21.617Z,8.07
2022-08-19T18:09:53.969Z,7.97
2022-08-19T18:12:26.918Z,8.17
2022-08-19T18:14:54.131Z,9.57
2022-08-19T18:17:23.163Z,7.40
2022-08-19T18:19:50.579Z,6.93
2022-08-19T18:22:26.556Z,7.23
2022-08-19T18:24:56.976Z,7.00
2022-08-19T18:27:24.457Z,8.63
2022-08-19T18:29:51.798Z,7.50
2022-08-19T18:32:24.090Z,8.20
2022-08-19T18:34:52.175Z,7.70
2022-08-19T18:37:19.811Z,6.73
2022-08-19T18:40:15.202Z,6.70
2022-08-19T18:43:02.339Z,6.80
2022-08-19T18:45:53.352Z,7.87
2022-08-19T18:48:48.386Z,7.03
2022-08-19T18:51:19.325Z,7.90
2022-08-19T18:53:48.513Z,8.03
2022-08-19T18:56:28.480Z,7.43
2022-08-19T18:58:59.033Z,7.17
2022-08-19T19:01:31.028Z,7.70
2022-08-19T19:04:05.775Z,7.97
2022-08-19T19:06:37.934Z,7.30
2022-08-19T19:09:15.450Z,6.50
2022-08-19T19:11:48.734Z,7.17
2022-08-19T19:14:45.687Z,7.30
2022-08-19T19:17:14.778Z,8.03
2022-08-19T19:19:42.890Z,8.70
2022-08-19T19:22:14.187Z,8.80
2022-08-19T19:24:48.746Z,8.87
2022-08-19T19:27:20.289Z,8.50
2022-08-19T19:29:52.043Z,8.83
2022-08-19T19:32:24.093Z,9.87
2022-08-19T19:34:51.145Z,8.60
2022-08-19T19:37:18.689Z,8.27
2022-08-19T19:39:47.854Z,7.97
2022-08-19T19:42:23.669Z,7.23
2022-08-19T19:44:54.730Z,8.37
2022-08-19T19:47:24.285Z,8.27
2022-08-19T19:50:13.226Z,6.93
2022-08-19T19:52:40.067Z,8.10
2022-08-19T19:55:17.002Z,6.37
2022-08-19T19:57:49.171Z,6.40
2022-08-19T20:00:18.842Z,7.10
2022-08-19T20:02:49.762Z,6.30
2022-08-19T20:05:21.506Z,7.00
2022-08-19T20:08:08.581Z,6.13
2022-08-19T20:10:36.577Z,7.00
2022-08-19T20:13:05.863Z,5.40
2022-08-19T20:15:33.552Z,6.43
2022-08-19T20:18:02.252Z,5.90
2022-08-19T20:20:30.279Z,5.57
2022-08-19T20:23:03.642Z,6.37
2022-08-19T20:25:40.927Z,5.63
2022-08-19T20:28:10.643Z,5.70
2022-08-19T20:30:46.278Z,5.53
2022-08-19T20:33:14.527Z,6.30
2022-08-19T20:35:46.147Z,13.33
2022-08-19T20:38:13.651Z,5.20
2022-08-19T20:40:41.204Z,5.70
2022-08-19T20:43:13.756Z,5.97
2022-08-19T20:45:40.911Z,6.10
2022-08-19T20:48:10.480Z,5.60
2022-08-19T20:50:38.349Z,5.03
2022-08-19T20:53:12.348Z,5.03
2022-08-19T20:55:39.604Z,5.63
2022-08-19T20:58:07.079Z,4.83
2022-08-19T21:00:35.536Z,7.03
2022-08-19T21:03:02.632Z,6.00
2022-08-19T21:05:32.989Z,6.67
2022-08-19T21:08:04.619Z,4.90
2022-08-19T21:10:32.043Z,7.70
2022-08-19T21:12:59.151Z,5.57
2022-08-19T21:15:28.898Z,5.67
2022-08-19T21:17:57.914Z,5.80
2022-08-19T21:20:25.114Z,5.10
2022-08-19T21:22:55.177Z,5.50
2022-08-19T21:25:22.291Z,4.53
2022-08-19T21:27:49.449Z,4.67
2022-08-19T21:30:16.462Z,4.80
2022-08-19T21:32:43.857Z,4.70
2022-08-19T21:35:12.447Z,4.50
2022-08-19T21:37:39.434Z,5.47
2022-08-19T21:40:08.755Z,5.60
2022-08-19T21:42:36.165Z,4.63
2022-08-19T21:45:03.656Z,4.60
2022-08-19T21:47:30.781Z,5.00
2022-08-19T21:49:57.923Z,5.40
2022-08-19T21:52:27.843Z,4.30
2022-08-19T21:54:55.709Z,4.73
2022-08-19T21:57:24.528Z,4.50
2022-08-19T21:59:52.733Z,4.57
2022-08-19T22:02:21.493Z,4.37
2022-08-19T22:04:49.103Z,4.70
2022-08-19T22:07:16.374Z,4.10
2022-08-19T22:09:46.094Z,3.80
2022-08-19T22:12:23.897Z,4.37
2022-08-19T22:14:51.917Z,4.03
2022-08-19T22:17:19.799Z,3.60
2022-08-19T22:19:46.967Z,3.80
2022-08-19T22:22:20.181Z,3.60
2022-08-19T22:24:48.556Z,4.00
2022-08-19T22:27:15.714Z,3.40
2022-08-19T22:29:43.493Z,4.10
2022-08-19T22:32:27.080Z,3.43
2022-08-19T22:34:59.595Z,3.50
2022-08-19T22:37:29.137Z,3.40
2022-08-19T22:39:57.963Z,3.77
2022-08-19T22:42:25.322Z,3.40
2022-08-19T22:44:59.112Z,3.40
2022-08-19T22:47:27.171Z,3.87
2022-08-19T22:49:59.159Z,3.17
2022-08-19T22:52:26.273Z,3.67
2022-08-19T22:54:59.689Z,3.47
2022-08-19T22:57:30.022Z,3.70
2022-08-19T23:00:00.939Z,3.20
2022-08-19T23:02:34.447Z,3.20
2022-08-19T23:05:02.550Z,3.17
2022-08-19T23:07:29.786Z,3.20
2022-08-19T23:09:58.308Z,2.90
2022-08-19T23:12:32.692Z,3.27
2022-08-19T23:15:03.915Z,3.00
2022-08-19T23:17:31.016Z,3.00
2022-08-19T23:20:00.497Z,2.80
2022-08-19T23:22:29.309Z,2.93
2022-08-19T23:25:06.227Z,3.23
2022-08-19T23:27:51.900Z,2.80
2022-08-19T23:30:28.122Z,3.63
2022-08-19T23:32:56.110Z,3.30
2022-08-19T23:35:24.587Z,3.70
2022-08-19T23:37:52.120Z,3.40
2022-08-19T23:40:23.444Z,2.70
2022-08-19T23:42:51.742Z,3.13
2022-08-19T23:45:23.816Z,2.93
2022-08-19T23:47:51.904Z,3.20
2022-08-19T23:50:21.679Z,3.30
2022-08-19T23:52:57.537Z,2.90
2022-08-19T23:55:31.687Z,2.70
2022-08-19T23:57:59.880Z,3.03
